createdAt,value
2022-10-11T00:01:38.508Z,46.50
2022-10-11T00:04:06.299Z,46.20
2022-10-11T00:06:34.086Z,46.37
2022-10-11T00:09:03.191Z,46.40
2022-10-11T00:11:30.999Z,46.47
2022-10-11T00:13:58.925Z,46.50
2022-10-11T00:16:26.746Z,45.90
2022-10-11T00:18:54.554Z,46.33
2022-10-11T00:21:22.642Z,46.50
2022-10-11T00:23:50.798Z,46.57
2022-10-11T00:26:19.882Z,46.10
2022-10-11T00:28:47.878Z,46.40
2022-10-11T00:31:16.632Z,46.37
2022-10-11T00:33:44.485Z,46.37
2022-10-11T00:36:14.376Z,46.07
2022-10-11T00:38:42.492Z,46.43
2022-10-11T00:41:10.730Z,46.07
2022-10-11T00:43:40.398Z,46.20
2022-10-11T00:46:27.738Z,46.30
2022-10-11T00:49:00.830Z,46.00
2022-10-11T00:51:38.670Z,45.87
2022-10-11T00:54:08.527Z,46.13
2022-10-11T00:56:39.968Z,46.07
2022-10-11T00:59:15.027Z,46.10
2022-10-11T01:01:42.912Z,46.07
2022-10-11T01:04:10.838Z,46.07
2022-10-11T01:06:38.640Z,46.03
2022-10-11T01:09:06.519Z,45.97
2022-10-11T01:11:37.257Z,46.07
2022-10-11T01:14:30.083Z,46.30
2022-10-11T01:17:04.510Z,46.10
2022-10-11T01:19:52.191Z,46.30
2022-10-11T01:22:37.479Z,45.93
2022-10-11T01:25:20.015Z,46.10
2022-10-11T01:28:02.919Z,46.00
2022-10-11T01:30:34.037Z,45.93
2022-10-11T01:33:13.973Z,45.83
2022-10-11T01:35:49.286Z,45.77
2022-10-11T01:38:24.522Z,46.00
2022-10-11T01:40:57.098Z,46.20
2022-10-11T01:43:26.981Z,45.83
2022-10-11T01:45:58.821Z,45.80
2022-10-11T01:48:26.707Z,45.60
2022-10-11T01:50:56.814Z,46.03
2022-10-11T01:53:47.025Z,46.20
2022-10-11T01:56:23.552Z,46.10
2022-10-11T01:59:07.960Z,45.63
2022-10-11T02:01:49.915Z,46.10
2022-10-11T02:04:28.306Z,45.87
2022-10-11T02:07:01.638Z,46.03
2022-10-11T02:09:37.086Z,45.87
2022-10-11T02:12:09.351Z,46.10
2022-10-11T02:14:42.261Z,45.73
2022-10-11T02:17:15.139Z,46.03
2022-10-11T02:19:46.375Z,45.93
2022-10-11T02:22:19.743Z,45.97
2022-10-11T02:24:50.326Z,46.07
2022-10-11T02:27:22.820Z,45.70
2022-10-11T02:29:53.896Z,46.07
2022-10-11T02:32:26.427Z,46.07
2022-10-11T02:34:56.662Z,46.00
2022-10-11T02:37:32.047Z,45.80
2022-10-11T02:40:05.844Z,46.00
2022-10-11T02:42:37.942Z,46.10
2022-10-11T02:45:11.680Z,45.87
2022-10-11T02:47:42.230Z,45.70
2022-10-11T02:50:12.019Z,45.97
2022-10-11T02:52:39.908Z,45.83
2022-10-11T02:55:09.604Z,45.80
2022-10-11T02:57:37.423Z,45.97
2022-10-11T03:00:06.072Z,45.80
2022-10-11T03:02:33.980Z,45.77
2022-10-11T03:05:03.278Z,46.00
2022-10-11T03:07:31.077Z,45.77
2022-10-11T03:09:58.915Z,45.93
2022-10-11T03:12:26.742Z,46.00
2022-10-11T03:14:54.586Z,45.60
2022-10-11T03:17:36.019Z,45.87
2022-10-11T03:20:07.204Z,45.50
2022-10-11T03:22:35.063Z,45.97
2022-10-11T03:25:04.589Z,45.70
2022-10-11T03:27:32.751Z,45.70
2022-10-11T03:30:00.632Z,45.90
2022-10-11T03:32:28.451Z,45.80
2022-10-11T03:34:56.292Z,45.67
2022-10-11T03:37:25.715Z,45.80
2022-10-11T03:39:53.878Z,45.80
2022-10-11T03:42:22.013Z,45.87
2022-10-11T03:44:51.805Z,46.23
2022-10-11T03:47:19.957Z,46.30
2022-10-11T03:49:47.819Z,45.93
2022-10-11T03:52:15.618Z,46.00
2022-10-11T03:54:44.836Z,45.80
2022-10-11T03:57:12.614Z,46.07
2022-10-11T03:59:40.363Z,45.73
2022-10-11T04:02:08.197Z,46.40
2022-10-11T04:04:37.512Z,46.40
2022-10-11T04:07:05.277Z,46.50
2022-10-11T04:09:33.129Z,46.20
2022-10-11T04:12:02.375Z,46.27
2022-10-11T04:14:30.310Z,46.00
2022-10-11T04:17:00.404Z,46.27
2022-10-11T04:19:28.831Z,46.23
2022-10-11T04:21:57.068Z,46.67
2022-10-11T04:24:24.894Z,46.33
2022-10-11T04:26:52.722Z,46.20
2022-10-11T04:29:22.252Z,46.53
2022-10-11T04:31:50.112Z,46.33
2022-10-11T04:34:18.036Z,46.57
2022-10-11T04:36:49.760Z,46.77
2022-10-11T04:39:18.225Z,46.37
2022-10-11T04:41:46.047Z,46.07
2022-10-11T04:44:13.848Z,46.47
2022-10-11T04:46:43.129Z,46.37
2022-10-11T04:49:10.960Z,46.67
2022-10-11T04:51:38.809Z,46.50
2022-10-11T04:54:06.696Z,46.27
2022-10-11T04:56:34.604Z,46.57
2022-10-11T04:59:02.376Z,46.33
2022-10-11T05:01:30.203Z,46.57
2022-10-11T05:03:59.349Z,46.57
2022-10-11T05:06:27.358Z,46.20
2022-10-11T05:08:55.183Z,46.53
2022-10-11T05:11:23.293Z,46.60
2022-10-11T05:13:51.077Z,46.40
2022-10-11T05:16:19.063Z,46.67
2022-10-11T05:18:46.844Z,46.43
2022-10-11T05:21:18.896Z,46.53
2022-10-11T05:23:47.791Z,46.40
2022-10-11T05:26:15.889Z,46.37
2022-10-11T05:28:44.286Z,46.40
2022-10-11T05:31:12.530Z,46.50
2022-10-11T05:33:40.336Z,46.67
2022-10-11T05:36:09.380Z,46.73
2022-10-11T05:38:39.334Z,46.33
2022-10-11T05:41:09.172Z,46.37
2022-10-11T05:43:37.458Z,46.33
2022-10-11T05:46:05.765Z,46.50
2022-10-11T05:48:34.198Z,46.50
2022-10-11T05:51:03.222Z,46.37
2022-10-11T05:53:31.106Z,46.43
2022-10-11T05:56:00.484Z,46.33
2022-10-11T05:58:28.808Z,46.50
2022-10-11T06:00:57.625Z,46.27
2022-10-11T06:03:25.457Z,46.27
2022-10-11T06:05:56.750Z,46.40
2022-10-11T06:08:24.903Z,45.97
2022-10-11T06:10:52.678Z,45.57
2022-10-11T06:13:21.788Z,45.57
2022-10-11T06:15:49.560Z,45.50
2022-10-11T06:18:17.363Z,45.17
2022-10-11T06:20:45.136Z,45.13
2022-10-11T06:23:12.966Z,45.00
2022-10-11T06:25:40.750Z,44.90
2022-10-11T06:28:08.606Z,45.57
2022-10-11T06:30:39.728Z,45.10
2022-10-11T06:33:07.549Z,45.10
2022-10-11T06:35:35.311Z,45.20
2022-10-11T06:38:03.097Z,45.00
2022-10-11T06:40:30.889Z,44.93
2022-10-11T06:42:58.690Z,44.90
2022-10-11T06:45:26.481Z,45.13
2022-10-11T06:47:55.612Z,45.10
2022-10-11T06:50:47.081Z,45.10
2022-10-11T06:53:11.535Z,45.10
2022-10-11T06:55:39.307Z,45.13
2022-10-11T06:58:07.118Z,45.27
2022-10-11T07:00:34.924Z,45.20
2022-10-11T07:03:04.497Z,44.90
2022-10-11T07:05:34.612Z,45.10
2022-10-11T07:08:02.488Z,45.37
2022-10-11T07:10:30.259Z,45.20
2022-10-11T07:12:58.031Z,45.50
2022-10-11T07:15:25.804Z,45.07
2022-10-11T07:17:53.603Z,45.07
2022-10-11T07:20:22.726Z,44.97
2022-10-11T07:22:50.511Z,45.60
2022-10-11T07:25:18.455Z,45.33
2022-10-11T07:27:46.234Z,45.83
2022-10-11T07:30:14.292Z,45.50
2022-10-11T07:32:42.108Z,45.70
2022-10-11T07:35:10.114Z,45.90
2022-10-11T07:37:39.256Z,46.03
2022-10-11T07:40:10.779Z,46.30
2022-10-11T07:42:38.668Z,46.30
2022-10-11T07:45:07.206Z,46.30
2022-10-11T07:47:35.026Z,46.47
2022-10-11T07:50:02.896Z,46.97
2022-10-11T07:52:30.700Z,46.97
2022-10-11T07:54:59.802Z,46.70
2022-10-11T07:57:27.612Z,47.47
2022-10-11T07:59:55.378Z,47.33
2022-10-11T08:02:23.136Z,47.10
2022-10-11T08:04:50.926Z,47.57
2022-10-11T08:07:18.732Z,47.23
2022-10-11T08:09:46.499Z,47.77
2022-10-11T08:12:15.672Z,47.23
2022-10-11T08:14:43.450Z,47.33
2022-10-11T08:17:11.232Z,47.97
2022-10-11T08:19:39.010Z,47.67
2022-10-11T08:22:07.008Z,47.80
2022-10-11T08:24:38.281Z,47.90
2022-10-11T08:27:06.599Z,47.60
2022-10-11T08:29:35.737Z,48.30
2022-10-11T08:32:03.516Z,48.17
2022-10-11T08:34:31.312Z,48.37
2022-10-11T08:36:59.088Z,47.87
2022-10-11T08:39:26.853Z,48.43
2022-10-11T08:41:56.794Z,48.23
2022-10-11T08:45:05.477Z,48.73
2022-10-11T08:47:31.442Z,48.60
2022-10-11T08:50:00.504Z,48.30
2022-10-11T08:52:32.082Z,48.67
2022-10-11T08:55:05.543Z,48.77
2022-10-11T08:57:36.867Z,48.63
2022-10-11T09:00:08.566Z,48.50
2022-10-11T09:03:07.092Z,47.87
2022-10-11T09:05:35.949Z,48.20
2022-10-11T09:08:11.411Z,48.77
2022-10-11T09:11:04.063Z,48.57
2022-10-11T09:13:58.669Z,48.37
2022-10-11T09:16:37.525Z,48.73
2022-10-11T09:19:22.982Z,48.47
2022-10-11T09:22:00.403Z,48.43
2022-10-11T09:24:37.864Z,48.27
2022-10-11T09:27:13.828Z,48.20
2022-10-11T09:29:51.947Z,48.33
2022-10-11T09:32:21.930Z,47.90
2022-10-11T09:34:56.599Z,48.30
2022-10-11T09:37:30.373Z,48.40
2022-10-11T09:40:04.669Z,47.83
2022-10-11T09:42:32.450Z,48.10
2022-10-11T09:45:02.830Z,47.93
2022-10-11T09:47:32.924Z,48.20
2022-10-11T09:50:03.936Z,47.90
2022-10-11T09:52:32.068Z,47.87
2022-10-11T09:55:01.372Z,47.97
2022-10-11T09:57:31.408Z,48.13
2022-10-11T10:00:02.259Z,47.70
2022-10-11T10:02:46.776Z,47.80
2022-10-11T10:05:18.597Z,47.47
2022-10-11T10:08:08.000Z,47.90
2022-10-11T10:10:39.603Z,48.17
2022-10-11T10:13:20.027Z,47.83
2022-10-11T10:15:50.766Z,47.73
2022-10-11T10:18:24.607Z,48.23
2022-10-11T10:20:54.936Z,47.97
2022-10-11T10:23:25.768Z,47.93
2022-10-11T10:26:09.566Z,47.80
2022-10-11T10:28:37.694Z,48.10
2022-10-11T10:31:05.509Z,48.20
2022-10-11T10:33:35.850Z,47.90
2022-10-11T10:36:09.351Z,48.37
2022-10-11T10:38:41.630Z,48.23
2022-10-11T10:41:13.407Z,48.47
2022-10-11T10:43:43.112Z,48.17
2022-10-11T10:46:27.235Z,48.27
2022-10-11T10:52:03.022Z,48.03
2022-10-11T10:54:41.225Z,48.13
2022-10-11T10:57:19.058Z,48.23
2022-10-11T11:00:06.104Z,47.97
2022-10-11T11:02:41.811Z,48.07
2022-10-11T11:05:26.950Z,48.03
2022-10-11T11:08:04.229Z,47.73
2022-10-11T11:10:37.894Z,47.93
2022-10-11T11:13:19.779Z,48.17
2022-10-11T11:15:53.599Z,47.57
2022-10-11T11:18:29.909Z,47.70
2022-10-11T11:21:19.786Z,47.97
2022-10-11T11:23:56.762Z,47.90
2022-10-11T11:26:33.616Z,47.93
2022-10-11T11:29:12.196Z,48.37
2022-10-11T11:31:58.038Z,48.33
2022-10-11T11:34:29.430Z,48.27
2022-10-11T11:37:02.822Z,48.87
2022-10-11T11:39:35.840Z,48.47
2022-10-11T11:42:10.455Z,48.30
2022-10-11T11:44:42.392Z,48.03
2022-10-11T11:47:17.723Z,47.97
2022-10-11T11:49:50.214Z,48.23
2022-10-11T11:52:27.390Z,48.20
2022-10-11T11:55:04.238Z,47.80
2022-10-11T11:57:42.164Z,47.93
2022-10-11T12:00:16.760Z,47.77
2022-10-11T12:02:49.790Z,47.33
2022-10-11T12:05:21.482Z,47.63
2022-10-11T12:07:55.544Z,47.53
2022-10-11T12:10:30.236Z,47.77
2022-10-11T12:13:19.938Z,47.90
2022-10-11T12:16:10.081Z,47.40
2022-10-11T12:18:50.592Z,47.27
2022-10-11T12:21:23.169Z,47.53
2022-10-11T12:23:53.654Z,47.87
2022-10-11T12:26:43.283Z,47.10
2022-10-11T12:29:45.927Z,47.80
2022-10-11T12:32:51.023Z,47.40
2022-10-11T12:36:04.020Z,47.60
2022-10-11T12:38:37.676Z,47.27
2022-10-11T12:41:50.675Z,47.33
2022-10-11T12:44:23.903Z,47.40
2022-10-11T12:47:14.246Z,47.23
2022-10-11T12:49:56.783Z,47.40
2022-10-11T12:52:35.397Z,47.53
2022-10-11T12:55:30.534Z,47.00
2022-10-11T12:58:28.618Z,47.10
2022-10-11T13:01:12.848Z,46.87
2022-10-11T13:03:43.420Z,47.10
2022-10-11T13:06:15.010Z,47.47
2022-10-11T13:08:46.324Z,46.87
2022-10-11T13:11:19.999Z,47.17
2022-10-11T13:13:54.061Z,47.47
2022-10-11T13:16:25.089Z,46.93
2022-10-11T13:18:58.432Z,47.17
2022-10-11T13:21:30.573Z,46.87
2022-10-11T13:24:01.108Z,47.20
2022-10-11T13:26:31.457Z,47.13
2022-10-11T13:29:01.302Z,47.50
2022-10-11T13:31:29.629Z,47.40
2022-10-11T13:33:59.890Z,47.47
2022-10-11T13:36:28.534Z,47.27
2022-10-11T13:38:58.680Z,47.50
2022-10-11T13:41:28.100Z,47.43
2022-10-11T13:43:57.745Z,47.67
2022-10-11T13:46:28.829Z,46.97
2022-10-11T13:49:01.566Z,47.47
2022-10-11T13:51:33.119Z,47.70
2022-10-11T13:54:03.191Z,47.47
2022-10-11T13:56:33.625Z,47.47
2022-10-11T13:59:02.043Z,47.77
2022-10-11T14:01:39.325Z,47.57
2022-10-11T14:04:09.896Z,47.50
2022-10-11T14:06:47.239Z,47.33
2022-10-11T14:09:21.636Z,47.70
2022-10-11T14:11:49.946Z,47.60
2022-10-11T14:14:41.889Z,47.37
2022-10-11T14:17:17.156Z,47.43
2022-10-11T14:19:46.014Z,47.17
2022-10-11T14:22:16.419Z,47.23
2022-10-11T14:24:47.258Z,47.40
2022-10-11T14:27:19.216Z,47.40
2022-10-11T14:30:00.491Z,47.77
2022-10-11T14:32:37.244Z,47.50
2022-10-11T14:35:05.726Z,47.37
2022-10-11T14:37:33.574Z,47.17
2022-10-11T14:40:01.356Z,47.47
2022-10-11T14:42:29.156Z,47.60
2022-10-11T14:44:56.948Z,47.40
2022-10-11T14:47:24.755Z,47.40
2022-10-11T14:49:53.874Z,46.93
2022-10-11T14:52:21.687Z,47.07
2022-10-11T14:54:49.474Z,47.37
2022-10-11T14:57:17.252Z,47.37
2022-10-11T14:59:45.100Z,47.50
2022-10-11T15:02:13.116Z,47.23
2022-10-11T15:04:40.964Z,47.23
2022-10-11T15:07:13.818Z,47.30
2022-10-11T15:09:41.655Z,47.40
2022-10-11T15:12:10.490Z,47.33
2022-10-11T15:14:38.308Z,47.10
2022-10-11T15:17:06.086Z,46.83
2022-10-11T15:19:33.914Z,47.00
2022-10-11T15:22:04.204Z,47.10
2022-10-11T15:24:33.348Z,46.93
2022-10-11T15:27:01.112Z,47.13
2022-10-11T15:29:29.117Z,47.30
2022-10-11T15:31:56.900Z,47.30
2022-10-11T15:34:24.703Z,46.77
2022-10-11T15:36:52.472Z,47.17
2022-10-11T15:39:30.492Z,46.93
2022-10-11T15:42:00.258Z,46.93
2022-10-11T15:44:28.099Z,46.70
2022-10-11T15:46:55.919Z,46.87
2022-10-11T15:49:23.813Z,47.33
2022-10-11T15:51:51.599Z,46.93
2022-10-11T15:54:19.420Z,47.30
2022-10-11T15:56:47.660Z,46.93
2022-10-11T15:59:16.755Z,46.87
2022-10-11T16:01:44.577Z,47.00
2022-10-11T16:04:12.382Z,47.17
2022-10-11T16:06:40.929Z,46.70
2022-10-11T16:09:08.770Z,46.60
2022-10-11T16:11:36.584Z,46.80
2022-10-11T16:14:04.511Z,46.47
2022-10-11T16:16:33.685Z,46.87
2022-10-11T16:19:01.437Z,46.73
2022-10-11T16:21:29.361Z,47.23
2022-10-11T16:23:57.137Z,46.73
2022-10-11T16:26:24.948Z,46.77
2022-10-11T16:28:52.769Z,46.57
2022-10-11T16:31:21.036Z,46.80
2022-10-11T16:33:52.720Z,46.73
2022-10-11T16:36:32.638Z,46.47
2022-10-11T16:39:01.323Z,46.90
2022-10-11T16:41:29.173Z,46.60
2022-10-11T16:43:57.440Z,46.33
2022-10-11T16:46:25.703Z,46.27
2022-10-11T16:48:56.686Z,46.57
2022-10-11T16:51:25.213Z,46.70
2022-10-11T16:53:53.493Z,46.17
2022-10-11T16:56:22.562Z,46.60
2022-10-11T16:58:51.346Z,46.43
2022-10-11T17:01:19.589Z,46.57
2022-10-11T17:03:47.484Z,46.80
2022-10-11T17:06:16.603Z,46.93
2022-10-11T17:08:44.378Z,46.97
2022-10-11T17:11:12.166Z,46.57
2022-10-11T17:13:40.012Z,46.63
2022-10-11T17:16:08.986Z,46.87
2022-10-11T17:18:37.451Z,46.77
2022-10-11T17:21:07.538Z,46.97
2022-10-11T17:23:36.886Z,46.80
2022-10-11T17:26:10.975Z,46.93
2022-10-11T17:28:39.655Z,46.80
2022-10-11T17:31:08.709Z,47.13
2022-10-11T17:33:37.071Z,46.87
2022-10-11T17:36:15.356Z,46.80
2022-10-11T17:38:44.482Z,47.37
2022-10-11T17:41:12.747Z,47.30
2022-10-11T17:43:40.728Z,46.73
2022-10-11T17:46:09.421Z,47.17
2022-10-11T17:48:39.144Z,47.03
2022-10-11T17:51:08.903Z,47.17
2022-10-11T17:53:37.421Z,46.97
2022-10-11T17:56:07.992Z,46.87
2022-10-11T17:58:36.043Z,47.00
2022-10-11T18:01:05.229Z,46.80
2022-10-11T18:03:33.719Z,46.67
2022-10-11T18:06:04.186Z,46.70
2022-10-11T18:08:35.308Z,47.03
2022-10-11T18:11:10.008Z,46.87
2022-10-11T18:13:37.853Z,46.97
2022-10-11T18:16:06.407Z,46.87
2022-10-11T18:18:34.463Z,46.87
2022-10-11T18:21:02.238Z,46.87
2022-10-11T18:23:30.056Z,46.77
2022-10-11T18:25:57.855Z,46.70
2022-10-11T18:28:27.030Z,47.10
2022-10-11T18:30:56.025Z,46.80
2022-10-11T18:33:23.826Z,46.97
2022-10-11T18:36:00.199Z,46.63
2022-10-11T18:38:27.976Z,47.07
2022-10-11T18:40:55.739Z,47.00
2022-10-11T18:43:23.606Z,46.90
2022-10-11T18:45:52.699Z,46.87
2022-10-11T18:48:20.455Z,47.00
2022-10-11T18:50:49.498Z,47.07
2022-10-11T18:53:17.292Z,46.90
2022-10-11T18:55:45.036Z,46.57
2022-10-11T18:58:12.792Z,46.90
2022-10-11T19:00:41.540Z,46.83
2022-10-11T19:03:10.877Z,46.63
2022-10-11T19:05:39.679Z,47.13
2022-10-11T19:08:07.521Z,47.40
2022-10-11T19:10:35.291Z,47.53
2022-10-11T19:13:03.080Z,48.13
2022-10-11T19:15:30.880Z,46.70
2022-10-11T19:17:58.641Z,47.10
2022-10-11T19:20:27.759Z,46.70
2022-10-11T19:22:55.552Z,46.77
2022-10-11T19:25:24.202Z,46.87
2022-10-11T19:27:51.974Z,47.30
2022-10-11T19:30:19.748Z,46.97
2022-10-11T19:32:47.539Z,47.03
2022-10-11T19:35:19.822Z,46.67
2022-10-11T19:37:49.283Z,47.10
2022-10-11T19:40:17.099Z,46.93
2022-10-11T19:42:44.881Z,46.83
2022-10-11T19:45:12.636Z,46.67
2022-10-11T19:47:40.452Z,46.50
2022-10-11T19:50:09.147Z,46.80
2022-10-11T19:52:40.358Z,46.47
2022-10-11T19:55:12.144Z,46.43
2022-10-11T19:57:39.940Z,46.67
2022-10-11T20:00:09.028Z,46.40
2022-10-11T20:02:36.843Z,46.43
2022-10-11T20:05:05.099Z,46.47
2022-10-11T20:07:33.112Z,46.17
2022-10-11T20:10:01.100Z,46.40
2022-10-11T20:12:30.535Z,46.03
2022-10-11T20:14:58.733Z,46.07
2022-10-11T20:17:46.633Z,46.40
2022-10-11T20:20:14.583Z,46.20
2022-10-11T20:22:42.392Z,46.43
2022-10-11T20:25:10.561Z,45.73
2022-10-11T20:27:42.360Z,46.30
2022-10-11T20:30:12.147Z,46.10
2022-10-11T20:32:39.939Z,46.00
2022-10-11T20:35:09.324Z,45.97
2022-10-11T20:37:37.968Z,46.00
2022-10-11T20:40:06.157Z,46.33
2022-10-11T20:42:34.035Z,46.17
2022-10-11T20:45:03.152Z,45.87
2022-10-11T20:47:31.344Z,46.27
2022-10-11T20:49:59.448Z,46.10
2022-10-11T20:52:27.283Z,46.13
2022-10-11T20:54:55.088Z,45.93
2022-10-11T20:57:22.847Z,46.00
2022-10-11T20:59:50.600Z,46.00
2022-10-11T21:02:19.736Z,46.17
2022-10-11T21:04:47.511Z,45.93
2022-10-11T21:07:15.286Z,45.80
2022-10-11T21:09:43.070Z,46.00
2022-10-11T21:12:10.838Z,46.10
2022-10-11T21:14:38.595Z,46.00
2022-10-11T21:17:06.367Z,45.87
2022-10-11T21:19:35.480Z,45.93
2022-10-11T21:22:03.552Z,45.67
2022-10-11T21:24:31.420Z,45.70
2022-10-11T21:27:00.812Z,46.13
2022-10-11T21:29:28.798Z,45.83
2022-10-11T21:31:56.628Z,46.23
2022-10-11T21:34:24.425Z,45.90
2022-10-11T21:36:53.546Z,46.10
2022-10-11T21:39:21.548Z,46.07
2022-10-11T21:41:49.316Z,45.77
2022-10-11T21:44:17.165Z,45.87
2022-10-11T21:49:32.703Z,45.80
2022-10-11T21:52:01.902Z,45.90
2022-10-11T21:54:29.706Z,45.93
2022-10-11T21:56:57.500Z,45.80
2022-10-11T21:59:25.242Z,45.97
2022-10-11T22:01:55.054Z,45.83
2022-10-11T22:04:26.034Z,45.73
2022-10-11T22:06:53.806Z,45.90
2022-10-11T22:09:22.982Z,45.93
2022-10-11T22:11:50.752Z,45.80
2022-10-11T22:14:18.982Z,45.77
2022-10-11T22:16:46.748Z,46.13
2022-10-11T22:19:14.526Z,45.83
2022-10-11T22:21:45.094Z,45.70
2022-10-11T22:24:13.276Z,45.57
2022-10-11T22:26:42.407Z,45.77
2022-10-11T22:29:10.454Z,45.73
2022-10-11T22:31:38.227Z,45.80
2022-10-11T22:34:06.018Z,45.50
2022-10-11T22:36:33.867Z,45.70
2022-10-11T22:39:02.671Z,45.80
2022-10-11T22:41:30.448Z,45.53
2022-10-11T22:43:59.576Z,45.67
2022-10-11T22:46:27.358Z,45.77
2022-10-11T22:48:55.166Z,45.70
2022-10-11T22:51:22.979Z,45.97
2022-10-11T22:53:50.775Z,45.57
2022-10-11T22:56:18.548Z,45.80
2022-10-11T22:58:46.397Z,45.53
2022-10-11T23:01:16.870Z,45.60
2022-10-11T23:03:48.063Z,45.47
2022-10-11T23:06:15.891Z,45.27
2022-10-11T23:08:44.294Z,45.43
2022-10-11T23:11:12.609Z,46.03
2022-10-11T23:13:40.474Z,45.50
2022-10-11T23:16:09.574Z,45.60
2022-10-11T23:18:39.444Z,45.47
2022-10-11T23:21:08.323Z,45.13
2022-10-11T23:23:36.401Z,45.47
2022-10-11T23:26:06.545Z,45.50
2022-10-11T23:28:34.588Z,45.50
2022-10-11T23:31:07.467Z,45.47
2022-10-11T23:33:35.352Z,45.60
2022-10-11T23:36:04.755Z,45.60
2022-10-11T23:38:32.549Z,45.40
2022-10-11T23:41:00.329Z,45.50
2022-10-11T23:43:28.587Z,45.27
2022-10-11T23:45:57.197Z,45.33
2022-10-11T23:48:25.052Z,45.47
2022-10-11T23:50:52.870Z,45.80
2022-10-11T23:53:21.998Z,45.70
2022-10-11T23:55:49.770Z,45.50
2022-10-11T23:58:17.549Z,45.43
